createdAt,value
2018-08-04T04:00:37.028Z,87.66
2018-08-04T04:01:37.016Z,87.81
2018-08-04T04:02:37.014Z,88.37
2018-08-04T04:03:36.990Z,87.66
2018-08-04T04:04:37.000Z,87.91
2018-08-04T04:05:36.969Z,87.66
2018-08-04T04:06:36.970Z,88.07
2018-08-04T04:07:36.936Z,88.27
2018-08-04T04:08:36.923Z,88.37
2018-08-04T04:09:36.924Z,88.31
2018-08-04T04:10:36.915Z,88.07
2018-08-04T04:11:36.895Z,88.51
2018-08-04T04:12:36.879Z,88.11
2018-08-04T04:13:36.871Z,88.37
2018-08-04T04:14:36.858Z,87.87
2018-08-04T04:15:36.859Z,87.96
2018-08-04T04:16:36.890Z,87.77
2018-08-04T04:17:36.822Z,88.27
2018-08-04T04:18:36.814Z,87.91
2018-08-04T04:19:36.800Z,87.81
2018-08-04T04:20:36.798Z,88.07
2018-08-04T04:21:36.777Z,88.37
2018-08-04T04:22:36.770Z,88.37
2018-08-04T04:23:36.762Z,88.21
2018-08-04T04:24:36.749Z,88.37
2018-08-04T04:25:36.743Z,88.37
2018-08-04T04:26:36.725Z,88.47
2018-08-04T04:27:36.719Z,87.96
2018-08-04T04:28:36.700Z,88.27
2018-08-04T04:29:36.693Z,88.27
2018-08-04T04:30:36.693Z,88.37
2018-08-04T04:31:36.672Z,88.57
2018-08-04T04:32:36.754Z,88.37
2018-08-04T04:33:36.647Z,88.27
2018-08-04T04:34:36.633Z,88.47
2018-08-04T04:35:36.634Z,88.17
2018-08-04T04:36:36.612Z,88.17
2018-08-04T04:37:36.600Z,88.27
2018-08-04T04:38:36.597Z,88.31
2018-08-04T04:39:36.587Z,88.41
2018-08-04T04:40:36.581Z,88.27
2018-08-04T04:41:36.567Z,88.41
2018-08-04T04:42:36.544Z,88.37
2018-08-04T04:43:36.540Z,88.27
2018-08-04T04:44:36.522Z,88.37
2018-08-04T04:45:36.520Z,88.11
2018-08-04T04:46:36.498Z,87.77
2018-08-04T04:47:36.489Z,87.81
2018-08-04T04:48:36.557Z,88.07
2018-08-04T04:49:36.464Z,87.77
2018-08-04T04:50:36.498Z,87.77
2018-08-04T04:51:36.445Z,88.07
2018-08-04T04:52:36.434Z,88.47
2018-08-04T04:53:36.423Z,88.17
2018-08-04T04:54:36.408Z,88.27
2018-08-04T04:55:36.400Z,88.37
2018-08-04T04:56:36.397Z,88.47
2018-08-04T04:57:36.385Z,88.37
2018-08-04T04:58:36.363Z,88.37
2018-08-04T04:59:36.355Z,88.27
2018-08-04T05:00:36.345Z,88.07
2018-08-04T05:01:36.345Z,88.07
2018-08-04T05:02:36.320Z,88.27
2018-08-04T05:03:36.312Z,88.27
2018-08-04T05:04:36.300Z,88.47
2018-08-04T05:05:36.287Z,88.37
2018-08-04T05:06:36.301Z,88.27
2018-08-04T05:07:36.264Z,88.17
2018-08-04T05:08:36.315Z,88.32
2018-08-04T05:09:36.244Z,88.57
2018-08-04T05:10:36.238Z,88.23
2018-08-04T05:11:36.277Z,88.27
2018-08-04T05:12:36.219Z,87.96
2018-08-04T05:13:36.199Z,87.77
2018-08-04T05:14:36.187Z,88.12
2018-08-04T05:15:36.176Z,87.77
2018-08-04T05:16:36.196Z,88.02
2018-08-04T05:17:36.154Z,88.12
2018-08-04T05:18:36.143Z,88.02
2018-08-04T05:19:36.133Z,88.23
2018-08-04T05:20:36.121Z,88.02
2018-08-04T05:21:36.220Z,88.12
2018-08-04T05:22:36.101Z,88.02
2018-08-04T05:23:36.092Z,88.02
2018-08-04T05:24:36.076Z,88.02
2018-08-04T05:25:36.064Z,88.02
2018-08-04T05:26:36.065Z,88.02
2018-08-04T05:27:36.042Z,88.23
2018-08-04T05:28:36.034Z,88.02
2018-08-04T05:29:36.020Z,88.02
2018-08-04T05:30:36.017Z,88.12
2018-08-04T05:31:36.013Z,88.12
2018-08-04T05:32:36.083Z,87.82
2018-08-04T05:33:35.975Z,88.12
2018-08-04T05:34:35.969Z,87.73
2018-08-04T05:35:35.952Z,88.43
2018-08-04T05:36:35.952Z,88.79
2018-08-04T05:37:35.935Z,89.18
2018-08-04T05:38:35.920Z,88.99
2018-08-04T05:39:35.908Z,88.48
2018-08-04T05:40:35.897Z,88.79
2018-08-04T05:41:35.916Z,88.89
2018-08-04T05:42:35.875Z,87.98
2018-08-04T05:43:35.882Z,87.98
2018-08-04T05:44:35.854Z,88.29
2018-08-04T05:45:35.842Z,88.29
2018-08-04T05:46:35.829Z,88.18
2018-08-04T05:47:35.830Z,87.84
2018-08-04T05:48:35.822Z,87.98
2018-08-04T05:49:35.797Z,88.09
2018-08-04T05:50:35.788Z,88.04
2018-08-04T05:51:35.774Z,87.78
2018-08-04T05:52:35.778Z,88.29
2018-08-04T05:53:35.751Z,87.88
2018-08-04T05:54:35.741Z,88.34
2018-08-04T05:55:35.751Z,88.04
2018-08-04T05:56:35.724Z,88.34
2018-08-04T05:57:35.723Z,88.34
2018-08-04T05:58:35.698Z,88.14
2018-08-04T05:59:35.743Z,87.94
2018-08-04T06:00:35.683Z,88.44
2018-08-04T06:01:35.666Z,87.94
2018-08-04T06:02:35.662Z,88.10
2018-08-04T06:03:35.640Z,88.30
2018-08-04T06:04:35.631Z,88.20
2018-08-04T06:05:35.619Z,88.10
2018-08-04T06:06:35.612Z,87.90
2018-08-04T06:07:35.612Z,88.00
2018-08-04T06:08:35.586Z,88.20
2018-08-04T06:09:35.581Z,88.36
2018-08-04T06:10:35.564Z,87.96
2018-08-04T06:11:35.572Z,87.12
2018-08-04T06:12:35.553Z,87.05
2018-08-04T06:13:35.533Z,87.82
2018-08-04T06:14:35.525Z,88.02
2018-08-04T06:15:35.506Z,88.32
2018-08-04T06:16:35.502Z,88.62
2018-08-04T06:17:35.538Z,87.52
2018-08-04T06:18:35.479Z,88.21
2018-08-04T06:19:35.462Z,88.12
2018-08-04T06:20:35.455Z,87.62
2018-08-04T06:21:35.442Z,87.73
2018-08-04T06:22:35.458Z,87.43
2018-08-04T06:23:35.419Z,86.09
2018-08-04T06:24:35.408Z,85.25
2018-08-04T06:25:35.397Z,84.91
2018-08-04T06:26:35.390Z,84.47
2018-08-04T06:27:35.384Z,84.87
2018-08-04T06:28:35.366Z,83.93
2018-08-04T06:29:35.353Z,83.23
2018-08-04T06:30:35.403Z,82.79
2018-08-04T06:31:35.330Z,83.45
2018-08-04T06:32:35.328Z,81.52
2018-08-04T06:33:35.308Z,80.82
2018-08-04T06:34:35.297Z,80.22
2018-08-04T06:35:35.293Z,80.08
2018-08-04T06:36:35.273Z,79.88
2018-08-04T06:37:35.287Z,79.75
2018-08-04T06:38:35.252Z,79.81
2018-08-04T06:39:35.240Z,79.41
2018-08-04T06:40:35.229Z,78.28
2018-08-04T06:41:35.277Z,78.28
2018-08-04T06:42:35.227Z,78.14
2018-08-04T06:43:35.198Z,76.42
2018-08-04T06:44:35.193Z,75.92
2018-08-04T06:45:35.174Z,76.02
2018-08-04T06:46:35.166Z,74.89
2018-08-04T06:47:35.408Z,73.20
2018-08-04T06:48:35.675Z,74.29
2018-08-04T06:49:35.694Z,74.76
2018-08-04T06:50:35.120Z,72.67
2018-08-04T06:51:35.113Z,72.47
2018-08-04T06:52:35.097Z,72.77
2018-08-04T06:53:35.097Z,71.94
2018-08-04T06:54:35.077Z,71.70
2018-08-04T06:55:35.067Z,71.11
2018-08-04T06:56:35.053Z,71.11
2018-08-04T06:57:35.044Z,70.38
2018-08-04T06:58:35.043Z,70.48
2018-08-04T06:59:35.020Z,71.34
2018-08-04T07:00:35.010Z,71.14
2018-08-04T07:01:35.000Z,70.61
2018-08-04T07:02:34.988Z,69.42
2018-08-04T07:03:34.988Z,69.53
2018-08-04T07:04:34.970Z,70.18
2018-08-04T07:05:34.953Z,69.59
2018-08-04T07:06:34.946Z,70.08
2018-08-04T07:07:34.958Z,69.85
2018-08-04T07:08:34.934Z,72.26
2018-08-04T07:09:34.915Z,69.65
2018-08-04T07:10:34.900Z,69.35
2018-08-04T07:11:34.890Z,68.63
2018-08-04T07:12:34.879Z,68.33
2018-08-04T07:13:34.879Z,67.41
2018-08-04T07:14:34.861Z,67.80
2018-08-04T07:15:34.847Z,67.38
2018-08-04T07:16:34.837Z,66.88
2018-08-04T07:17:34.825Z,66.78
2018-08-04T07:18:34.826Z,66.69
2018-08-04T07:19:34.808Z,66.95
2018-08-04T07:20:34.794Z,66.66
2018-08-04T07:21:34.782Z,66.85
2018-08-04T07:22:34.771Z,66.42
2018-08-04T07:23:34.792Z,66.33
2018-08-04T07:24:34.746Z,66.75
2018-08-04T07:25:34.737Z,66.56
2018-08-04T07:26:34.748Z,66.92
2018-08-04T07:27:34.716Z,67.22
2018-08-04T07:28:34.705Z,67.11
2018-08-04T07:29:34.702Z,67.32
2018-08-04T07:30:34.689Z,66.99
2018-08-04T07:31:34.672Z,67.87
2018-08-04T07:32:34.662Z,66.66
2018-08-04T07:33:34.651Z,65.94
2018-08-04T07:34:34.649Z,65.41
2018-08-04T07:35:34.627Z,64.42
2018-08-04T07:36:34.619Z,63.81
2018-08-04T07:37:34.608Z,63.09
2018-08-04T07:38:34.595Z,63.67
2018-08-04T07:39:34.596Z,62.46
2018-08-04T07:40:34.591Z,63.15
2018-08-04T07:41:34.563Z,64.20
2018-08-04T07:42:34.554Z,62.70
2018-08-04T07:43:34.551Z,61.61
2018-08-04T07:44:34.539Z,61.22
2018-08-04T07:45:34.520Z,59.62
2018-08-04T07:46:34.509Z,59.50
2018-08-04T07:47:34.552Z,58.12
2018-08-04T07:48:34.491Z,58.32
2018-08-04T07:49:34.489Z,57.56
2018-08-04T07:50:34.466Z,57.17
2018-08-04T07:51:34.483Z,57.92
2018-08-04T07:52:34.448Z,61.07
2018-08-04T07:53:34.455Z,57.31
2018-08-04T07:54:34.438Z,60.71
2018-08-04T07:55:34.414Z,57.84
2018-08-04T07:56:34.405Z,55.98
2018-08-04T07:57:34.393Z,57.03
2018-08-04T07:58:34.382Z,56.51
2018-08-04T07:59:34.454Z,56.81
2018-08-04T08:00:34.360Z,58.86
2018-08-04T08:01:34.351Z,58.07
2018-08-04T08:02:34.342Z,57.62
2018-08-04T08:03:34.329Z,57.32
2018-08-04T08:04:34.330Z,57.98
2018-08-04T08:05:34.308Z,57.59
2018-08-04T08:06:34.294Z,57.68
2018-08-04T08:07:34.285Z,57.86
2018-08-04T08:08:34.277Z,56.19
2018-08-04T08:09:34.273Z,55.08
2018-08-04T08:10:34.341Z,55.06
2018-08-04T08:11:34.257Z,54.86
2018-08-04T08:12:34.231Z,53.66
2018-08-04T08:13:34.222Z,54.15
2018-08-04T08:14:34.228Z,53.83
2018-08-04T08:15:34.198Z,52.64
2018-08-04T08:16:34.190Z,52.15
2018-08-04T08:17:34.175Z,51.27
2018-08-04T08:18:34.164Z,49.73
2018-08-04T08:19:34.175Z,49.53
2018-08-04T08:20:34.143Z,51.27
2018-08-04T08:21:34.133Z,46.50
2018-08-04T08:22:34.121Z,47.38
2018-08-04T08:23:34.110Z,47.36
2018-08-04T08:24:34.099Z,47.09
2018-08-04T08:25:34.106Z,47.67
2018-08-04T08:26:34.088Z,48.05
2018-08-04T08:27:34.071Z,49.80
2018-08-04T08:28:34.065Z,47.63
2018-08-04T08:29:34.052Z,50.07
2018-08-04T08:30:34.047Z,47.14
2018-08-04T08:31:34.083Z,49.10
2018-08-04T08:32:34.052Z,47.56
2018-08-04T08:33:34.010Z,47.53
2018-08-04T08:34:33.994Z,47.53
2018-08-04T08:35:34.003Z,47.63
2018-08-04T08:36:33.971Z,48.41
2018-08-04T08:37:33.958Z,48.71
2018-08-04T08:38:33.949Z,45.17
2018-08-04T08:39:33.936Z,45.07
2018-08-04T08:40:33.939Z,45.07
2018-08-04T08:41:33.914Z,46.53
2018-08-04T08:42:33.905Z,46.73
2018-08-04T08:43:33.894Z,46.04
2018-08-04T08:44:33.881Z,48.66
2018-08-04T08:45:33.878Z,47.09
2018-08-04T08:46:33.860Z,46.97
2018-08-04T08:47:33.847Z,45.12
2018-08-04T08:48:33.838Z,45.22
2018-08-04T08:49:33.825Z,44.05
2018-08-04T08:50:33.824Z,44.73
2018-08-04T08:51:33.811Z,43.35
2018-08-04T08:52:33.792Z,43.74
2018-08-04T08:53:34.160Z,43.91
2018-08-04T08:54:33.773Z,43.71
2018-08-04T08:55:33.794Z,42.55
2018-08-04T08:56:33.750Z,44.20
2018-08-04T08:57:33.740Z,44.10
2018-08-04T08:58:33.730Z,43.21
2018-08-04T08:59:33.719Z,41.63
2018-08-04T09:00:33.708Z,41.53
2018-08-04T09:01:33.711Z,41.34
2018-08-04T09:02:33.688Z,41.53
2018-08-04T09:03:33.677Z,40.91
2018-08-04T09:04:33.667Z,41.01
2018-08-04T09:05:33.665Z,39.84
2018-08-04T09:06:33.655Z,39.43
2018-08-04T09:07:33.637Z,39.72
2018-08-04T09:08:33.638Z,38.06
2018-08-04T09:09:33.613Z,37.63
2018-08-04T09:10:33.610Z,39.08
2018-08-04T09:11:33.597Z,39.74
2018-08-04T09:12:33.582Z,41.97
2018-08-04T09:13:33.616Z,39.51
2018-08-04T09:14:33.558Z,36.70
2018-08-04T09:15:33.607Z,37.36
2018-08-04T09:16:33.550Z,37.55
2018-08-04T09:17:33.528Z,36.32
2018-08-04T09:18:33.529Z,37.11
2018-08-04T09:19:33.506Z,39.45
2018-08-04T09:20:33.494Z,37.98
2018-08-04T09:21:33.494Z,37.59
2018-08-04T09:22:33.474Z,39.61
2018-08-04T09:23:33.464Z,37.28
2018-08-04T09:24:33.457Z,36.51
2018-08-04T09:25:33.447Z,36.41
2018-08-04T09:26:33.441Z,35.23
2018-08-04T09:27:33.420Z,35.62
2018-08-04T09:28:33.415Z,35.99
2018-08-04T09:29:33.399Z,35.50
2018-08-04T09:30:33.387Z,39.45
2018-08-04T09:31:33.393Z,36.46
2018-08-04T09:32:33.371Z,35.58
2018-08-04T09:33:33.358Z,36.96
2018-08-04T09:34:33.349Z,37.15
2018-08-04T09:35:33.338Z,37.55
2018-08-04T09:36:33.334Z,36.58
2018-08-04T09:37:33.314Z,36.18
2018-08-04T09:38:33.308Z,36.40
2018-08-04T09:39:33.292Z,36.98
2018-08-04T09:40:33.283Z,36.62
2018-08-04T09:41:33.281Z,36.33
2018-08-04T09:42:33.258Z,37.03
2018-08-04T09:43:33.250Z,41.08
2018-08-04T09:44:33.239Z,38.73
2018-08-04T09:45:33.227Z,37.98
2018-08-04T09:46:33.247Z,39.14
2018-08-04T09:47:33.204Z,39.18
2018-08-04T09:48:33.193Z,38.31
2018-08-04T09:49:33.183Z,40.72
2018-08-04T09:50:33.175Z,42.05
2018-08-04T09:51:33.161Z,45.12
2018-08-04T09:52:33.211Z,45.82
2018-08-04T09:53:33.142Z,45.51
2018-08-04T09:54:33.130Z,42.12
2018-08-04T09:55:33.117Z,43.18
2018-08-04T09:56:33.105Z,40.73
2018-08-04T09:57:33.109Z,41.09
2018-08-04T09:58:33.086Z,39.61
2018-08-04T09:59:33.092Z,39.03
2018-08-04T10:00:33.062Z,39.10
2018-08-04T10:01:33.053Z,39.45
2018-08-04T10:02:33.051Z,42.33
2018-08-04T10:03:33.029Z,37.07
2018-08-04T10:04:33.018Z,38.21
2018-08-04T10:05:33.007Z,39.65
2018-08-04T10:06:33.000Z,38.68
2018-08-04T10:07:33.005Z,44.13
2018-08-04T10:08:32.976Z,38.89
2018-08-04T10:09:32.965Z,38.73
2018-08-04T10:10:32.958Z,39.26
2018-08-04T10:11:32.944Z,39.00
2018-08-04T10:12:32.945Z,39.94
2018-08-04T10:13:32.931Z,38.98
2018-08-04T10:14:32.913Z,39.70
2018-08-04T10:15:32.902Z,41.60
2018-08-04T10:16:32.890Z,41.74
2018-08-04T10:17:32.891Z,41.25
2018-08-04T10:18:32.872Z,43.54
2018-08-04T10:19:32.859Z,42.95
2018-08-04T10:20:32.849Z,45.42
2018-08-04T10:21:32.839Z,43.85
2018-08-04T10:22:32.837Z,43.27
2018-08-04T10:23:32.816Z,43.29
2018-08-04T10:24:32.808Z,48.19
2018-08-04T10:25:32.797Z,44.46
2018-08-04T10:26:32.788Z,45.17
2018-08-04T10:27:32.786Z,45.37
2018-08-04T10:28:32.770Z,44.38
2018-08-04T10:29:32.753Z,45.59
2018-08-04T10:30:32.745Z,45.98
2018-08-04T10:31:32.733Z,43.33
2018-08-04T10:32:32.780Z,46.37
2018-08-04T10:33:32.714Z,45.27
2018-08-04T10:34:32.700Z,43.72
2018-08-04T10:35:32.691Z,41.96
2018-08-04T10:36:32.679Z,43.72
2018-08-04T10:37:32.668Z,46.56
2018-08-04T10:38:32.711Z,47.25
2018-08-04T10:39:32.648Z,46.84
2018-08-04T10:40:32.638Z,46.64
2018-08-04T10:41:32.629Z,46.34
2018-08-04T10:42:32.618Z,47.81
2018-08-04T10:43:32.619Z,45.76
2018-08-04T10:44:32.596Z,47.03
2018-08-04T10:45:32.584Z,45.68
2018-08-04T10:46:32.582Z,45.59
2018-08-04T10:47:32.565Z,46.08
2018-08-04T10:48:32.564Z,44.90
2018-08-04T10:49:32.584Z,45.98
2018-08-04T10:50:32.534Z,47.25
2018-08-04T10:51:32.521Z,46.08
2018-08-04T10:52:32.511Z,46.37
2018-08-04T10:53:32.512Z,45.78
2018-08-04T10:54:32.491Z,45.19
2018-08-04T10:55:32.481Z,44.23
2018-08-04T10:56:32.467Z,44.73
2018-08-04T10:57:32.467Z,45.41
2018-08-04T10:58:32.462Z,44.73
2018-08-04T10:59:32.434Z,43.74
2018-08-04T11:00:32.428Z,43.94
2018-08-04T11:01:32.415Z,44.62
2018-08-04T11:02:32.405Z,42.18
2018-08-04T11:03:32.407Z,41.98
2018-08-04T11:04:32.381Z,44.43
2018-08-04T11:05:32.372Z,46.20
2018-08-04T11:06:32.359Z,42.27
2018-08-04T11:07:32.350Z,42.86
2018-08-04T11:08:32.353Z,43.26
2018-08-04T11:09:32.331Z,42.18
2018-08-04T11:10:32.320Z,42.18
2018-08-04T11:11:32.306Z,43.05
2018-08-04T11:12:32.349Z,43.15
2018-08-04T11:13:32.297Z,43.84
2018-08-04T11:14:32.287Z,43.55
2018-08-04T11:15:32.264Z,44.53
2018-08-04T11:16:32.257Z,42.18
2018-08-04T11:17:32.247Z,41.98
2018-08-04T11:18:32.269Z,43.74
2018-08-04T11:19:32.223Z,42.25
2018-08-04T11:20:32.212Z,45.39
2018-08-04T11:21:32.201Z,41.96
2018-08-04T11:22:32.190Z,42.94
2018-08-04T11:23:32.185Z,43.33
2018-08-04T11:24:32.180Z,41.98
2018-08-04T11:25:32.158Z,43.15
2018-08-04T11:26:32.148Z,41.88
2018-08-04T11:27:32.137Z,42.18
2018-08-04T11:28:32.127Z,41.09
2018-08-04T11:29:32.125Z,40.70
2018-08-04T11:30:32.103Z,43.26
2018-08-04T11:31:32.095Z,43.82
2018-08-04T11:32:32.107Z,43.65
2018-08-04T11:33:32.070Z,43.84
2018-08-04T11:34:32.071Z,42.37
2018-08-04T11:35:32.054Z,43.55
2018-08-04T11:36:32.041Z,42.18
2018-08-04T11:37:32.036Z,43.45
2018-08-04T11:38:32.020Z,43.55
2018-08-04T11:39:32.020Z,47.17
2018-08-04T11:40:32.002Z,41.49
2018-08-04T11:41:31.988Z,48.45
2018-08-04T11:42:31.977Z,44.04
2018-08-04T11:43:31.977Z,46.88
2018-08-04T11:44:31.970Z,42.27
2018-08-04T11:45:32.000Z,42.47
2018-08-04T11:46:31.937Z,43.27
2018-08-04T11:47:31.923Z,43.18
2018-08-04T11:48:31.914Z,42.49
2018-08-04T11:49:31.916Z,44.26
2018-08-04T11:50:31.892Z,48.96
2018-08-04T11:51:31.954Z,45.41
2018-08-04T11:52:31.873Z,50.81
2018-08-04T11:53:31.861Z,50.73
2018-08-04T11:54:31.862Z,47.99
2018-08-04T11:55:31.841Z,50.51
2018-08-04T11:56:31.834Z,46.71
2018-08-04T11:57:31.821Z,44.74
2018-08-04T11:58:31.918Z,45.24
2018-08-04T11:59:31.817Z,47.10
2018-08-04T12:00:31.788Z,45.24
2018-08-04T12:01:31.777Z,47.30
2018-08-04T12:02:31.769Z,44.74
2018-08-04T12:03:31.758Z,43.66
2018-08-04T12:04:31.758Z,44.45
2018-08-04T12:05:31.767Z,43.27
2018-08-04T12:06:31.733Z,42.19
2018-08-04T12:07:31.721Z,41.41
2018-08-04T12:08:31.733Z,43.37
2018-08-04T12:09:31.701Z,42.39
2018-08-04T12:10:31.716Z,43.27
2018-08-04T12:11:31.676Z,48.96
2018-08-04T12:12:31.665Z,43.69
2018-08-04T12:13:31.669Z,44.18
2018-08-04T12:14:31.651Z,48.30
2018-08-04T12:15:31.645Z,47.71
2018-08-04T12:16:31.632Z,48.99
2018-08-04T12:17:31.615Z,47.81
2018-08-04T12:18:31.604Z,49.87
2018-08-04T12:19:31.599Z,48.79
2018-08-04T12:20:31.591Z,49.19
2018-08-04T12:21:31.571Z,49.90
2018-08-04T12:22:31.560Z,51.37
2018-08-04T12:23:31.549Z,50.88
2018-08-04T12:24:31.540Z,52.94
2018-08-04T12:25:31.591Z,53.63
2018-08-04T12:26:31.518Z,56.28
2018-08-04T12:27:31.507Z,54.52
2018-08-04T12:28:31.496Z,55.79
2018-08-04T12:29:31.492Z,57.98
2018-08-04T12:30:31.488Z,56.80
2018-08-04T12:31:31.538Z,56.01
2018-08-04T12:32:31.455Z,54.44
2018-08-04T12:33:31.455Z,56.01
2018-08-04T12:34:31.440Z,59.39
2018-08-04T12:35:31.435Z,58.47
2018-08-04T12:36:31.412Z,58.70
2018-08-04T12:37:31.469Z,59.88
2018-08-04T12:38:31.394Z,59.68
2018-08-04T12:39:31.387Z,59.39
2018-08-04T12:40:31.381Z,59.19
2018-08-04T12:41:31.361Z,61.05
2018-08-04T12:42:31.349Z,51.72
2018-08-04T12:43:31.337Z,47.88
2018-08-04T12:44:31.328Z,51.42
2018-08-04T12:45:31.380Z,48.67
2018-08-04T12:46:31.307Z,48.37
2018-08-04T12:47:31.302Z,50.12
2018-08-04T12:48:31.287Z,44.64
2018-08-04T12:49:31.279Z,47.17
2018-08-04T12:50:31.276Z,47.56
2018-08-04T12:51:31.254Z,45.79
2018-08-04T12:52:31.248Z,48.15
2018-08-04T12:53:31.242Z,45.81
2018-08-04T12:54:31.251Z,44.71
2018-08-04T12:55:31.240Z,47.47
2018-08-04T12:56:31.205Z,47.76
2018-08-04T12:57:31.196Z,49.53
2018-08-04T12:58:31.188Z,50.09
2018-08-04T12:59:31.205Z,50.21
2018-08-04T13:00:31.165Z,54.93
2018-08-04T13:01:31.164Z,52.97
2018-08-04T13:02:31.192Z,51.40
2018-08-04T13:03:31.134Z,52.08
2018-08-04T13:04:31.122Z,48.15
2018-08-04T13:05:31.114Z,47.09
2018-08-04T13:06:31.162Z,49.82
2018-08-04T13:07:31.095Z,47.96
2018-08-04T13:08:31.082Z,47.76
2018-08-04T13:09:31.069Z,43.63
2018-08-04T13:10:31.058Z,44.52
2018-08-04T13:11:31.058Z,46.88
2018-08-04T13:12:31.042Z,52.38
2018-08-04T13:13:31.027Z,52.97
2018-08-04T13:14:31.018Z,53.95
2018-08-04T13:15:31.010Z,53.83
2018-08-04T13:16:31.006Z,58.57
2018-08-04T13:17:30.989Z,53.46
2018-08-04T13:18:30.977Z,46.78
2018-08-04T13:19:30.968Z,49.63
2018-08-04T13:20:30.957Z,48.35
2018-08-04T13:21:30.958Z,52.48
2018-08-04T13:22:30.936Z,50.12
2018-08-04T13:23:30.924Z,51.50
2018-08-04T13:24:30.926Z,44.81
2018-08-04T13:25:30.903Z,45.10
2018-08-04T13:26:30.909Z,43.33
2018-08-04T13:27:30.884Z,43.33
2018-08-04T13:28:30.870Z,43.53
2018-08-04T13:29:30.867Z,43.63
2018-08-04T13:30:30.865Z,43.14
2018-08-04T13:31:30.849Z,43.46
2018-08-04T13:32:30.851Z,43.43
2018-08-04T13:33:30.816Z,42.94
2018-08-04T13:34:30.811Z,42.75
2018-08-04T13:35:30.798Z,43.73
2018-08-04T13:36:30.798Z,42.35
2018-08-04T13:37:30.832Z,45.09
2018-08-04T13:38:30.766Z,42.33
2018-08-04T13:39:30.755Z,41.94
2018-08-04T13:40:30.746Z,42.72
2018-08-04T13:41:30.748Z,43.32
2018-08-04T13:42:30.721Z,43.61
2018-08-04T13:43:30.720Z,44.59
2018-08-04T13:44:30.701Z,44.59
2018-08-04T13:45:30.692Z,45.48
2018-08-04T13:46:30.773Z,43.71
2018-08-04T13:47:30.671Z,45.87
2018-08-04T13:48:30.660Z,46.66
2018-08-04T13:49:30.649Z,43.22
2018-08-04T13:50:30.645Z,44.01
2018-08-04T13:51:30.633Z,45.67
2018-08-04T13:52:30.629Z,45.48
2018-08-04T13:53:30.608Z,46.75
2018-08-04T13:54:30.602Z,46.17
2018-08-04T13:55:30.589Z,49.99
2018-08-04T13:56:30.575Z,50.51
2018-08-04T13:57:30.577Z,51.59
2018-08-04T13:58:30.553Z,54.54
2018-08-04T13:59:30.549Z,53.85
2018-08-04T14:00:30.536Z,54.25
2018-08-04T14:01:30.523Z,57.98
2018-08-04T14:02:30.525Z,67.32
2018-08-04T14:03:30.497Z,63.06
2018-08-04T14:04:30.489Z,64.07
2018-08-04T14:05:30.476Z,65.48
2018-08-04T14:06:30.482Z,71.91
2018-08-04T14:07:30.466Z,70.80
2018-08-04T14:08:30.445Z,68.57
2018-08-04T14:09:30.434Z,73.86
2018-08-04T14:10:30.426Z,72.81
2018-08-04T14:11:30.412Z,77.29
2018-08-04T14:12:30.418Z,77.63
2018-08-04T14:13:30.394Z,76.74
2018-08-04T14:14:30.380Z,78.66
2018-08-04T14:15:30.368Z,80.04
2018-08-04T14:16:30.357Z,77.01
2018-08-04T14:17:30.435Z,76.91
2018-08-04T14:18:30.392Z,79.33
2018-08-04T14:19:30.325Z,80.52
2018-08-04T14:20:30.319Z,81.15
2018-08-04T14:21:30.305Z,78.57
2018-08-04T14:22:30.301Z,78.77
2018-08-04T14:23:30.280Z,74.11
2018-08-04T14:24:30.273Z,77.68
2018-08-04T14:25:30.260Z,80.85
2018-08-04T14:26:30.250Z,82.64
2018-08-04T14:27:30.255Z,84.12
2018-08-04T14:28:30.314Z,84.81
2018-08-04T14:29:30.226Z,80.36
2018-08-04T14:30:30.206Z,81.94
2018-08-04T14:31:30.204Z,81.94
2018-08-04T14:32:30.229Z,83.33
2018-08-04T14:33:30.178Z,83.92
2018-08-04T14:34:30.165Z,83.03
2018-08-04T14:35:30.182Z,82.04
2018-08-04T14:36:30.142Z,80.76
2018-08-04T14:37:30.129Z,75.90
2018-08-04T14:38:30.129Z,81.74
2018-08-04T14:39:30.108Z,72.53
2018-08-04T14:40:30.096Z,76.65
2018-08-04T14:41:30.137Z,80.62
2018-08-04T14:42:30.076Z,77.94
2018-08-04T14:43:30.077Z,76.75
2018-08-04T14:44:30.061Z,78.83
2018-08-04T14:45:30.043Z,76.56
2018-08-04T14:46:30.031Z,76.65
2018-08-04T14:47:30.020Z,76.35
2018-08-04T14:48:30.019Z,76.75
2018-08-04T14:49:30.017Z,76.45
2018-08-04T14:50:29.990Z,72.20
2018-08-04T14:51:29.983Z,69.49
2018-08-04T14:52:29.969Z,73.45
2018-08-04T14:53:29.965Z,73.91
2018-08-04T14:54:29.947Z,74.01
2018-08-04T14:55:29.940Z,69.65
2018-08-04T14:56:29.926Z,70.74
2018-08-04T14:57:29.913Z,71.23
2018-08-04T14:58:29.913Z,73.97
2018-08-04T14:59:29.895Z,62.82
2018-08-04T15:00:29.880Z,63.49
2018-08-04T15:01:29.871Z,66.75
2018-08-04T15:02:29.860Z,62.99
2018-08-04T15:03:29.869Z,66.85
2018-08-04T15:04:29.873Z,69.82
2018-08-04T15:05:29.828Z,69.02
2018-08-04T15:06:29.817Z,67.84
2018-08-04T15:07:29.810Z,69.32
2018-08-04T15:08:29.806Z,66.95
2018-08-04T15:09:29.787Z,65.96
2018-08-04T15:10:29.773Z,69.92
2018-08-04T15:11:29.764Z,69.35
2018-08-04T15:12:29.755Z,66.88
2018-08-04T15:13:29.775Z,68.27
2018-08-04T15:14:29.733Z,68.43
2018-08-04T15:15:29.727Z,68.73
2018-08-04T15:16:29.712Z,66.36
2018-08-04T15:17:29.702Z,57.78
2018-08-04T15:18:29.693Z,64.81
2018-08-04T15:19:29.694Z,67.44
2018-08-04T15:20:29.672Z,55.70
2018-08-04T15:21:29.727Z,54.71
2018-08-04T15:22:29.649Z,63.79
2018-08-04T15:23:29.639Z,63.12
2018-08-04T15:24:29.640Z,63.59
2018-08-04T15:25:29.619Z,58.97
2018-08-04T15:26:29.610Z,61.64
2018-08-04T15:27:29.597Z,61.41
2018-08-04T15:28:29.585Z,63.29
2018-08-04T15:29:29.586Z,60.45
2018-08-04T15:30:29.565Z,65.17
2018-08-04T15:31:29.556Z,64.38
2018-08-04T15:32:29.546Z,65.70
2018-08-04T15:33:29.534Z,65.10
2018-08-04T15:34:29.539Z,65.89
2018-08-04T15:35:29.516Z,70.15
2018-08-04T15:36:29.502Z,69.35
2018-08-04T15:37:29.501Z,66.88
2018-08-04T15:38:29.486Z,67.28
2018-08-04T15:39:29.486Z,68.17
2018-08-04T15:40:29.463Z,69.06
2018-08-04T15:41:29.453Z,69.26
2018-08-04T15:42:29.443Z,71.04
2018-08-04T15:43:29.429Z,70.15
2018-08-04T15:44:29.438Z,70.74
2018-08-04T15:45:29.410Z,68.96
2018-08-04T15:46:29.399Z,69.35
2018-08-04T15:47:29.388Z,69.85
2018-08-04T15:48:29.379Z,66.09
2018-08-04T15:49:29.407Z,65.80
2018-08-04T15:50:29.356Z,67.97
2018-08-04T15:51:29.346Z,70.25
2018-08-04T15:52:29.336Z,70.21
2018-08-04T15:53:29.325Z,70.94
2018-08-04T15:54:29.335Z,69.35
2018-08-04T15:55:29.306Z,71.34
2018-08-04T15:56:29.295Z,72.62
2018-08-04T15:57:29.284Z,70.01
2018-08-04T15:58:29.275Z,71.11
2018-08-04T15:59:29.276Z,71.14
2018-08-04T16:00:29.252Z,72.69
2018-08-04T16:01:29.255Z,71.44
2018-08-04T16:02:29.233Z,70.34
2018-08-04T16:03:29.222Z,73.22
2018-08-04T16:04:29.239Z,72.33
2018-08-04T16:05:29.202Z,73.08
2018-08-04T16:06:29.191Z,73.02
2018-08-04T16:07:29.184Z,70.51
2018-08-04T16:08:29.169Z,71.60
2018-08-04T16:09:29.160Z,71.11
2018-08-04T16:10:29.159Z,71.60
2018-08-04T16:11:29.140Z,72.19
2018-08-04T16:12:29.128Z,72.88
2018-08-04T16:13:29.119Z,71.40
2018-08-04T16:14:29.108Z,71.60
2018-08-04T16:15:29.108Z,71.40
2018-08-04T16:16:29.088Z,72.69
2018-08-04T16:17:29.090Z,70.81
2018-08-04T16:18:29.070Z,71.40
2018-08-04T16:19:29.064Z,72.19
2018-08-04T16:20:29.059Z,70.97
2018-08-04T16:21:29.037Z,71.50
2018-08-04T16:22:29.025Z,72.29
2018-08-04T16:23:29.014Z,73.97
2018-08-04T16:24:29.021Z,71.96
2018-08-04T16:25:29.005Z,66.55
2018-08-04T16:26:28.982Z,70.38
2018-08-04T16:27:28.971Z,71.47
2018-08-04T16:28:28.959Z,71.96
2018-08-04T16:29:28.957Z,71.26
2018-08-04T16:30:28.952Z,68.99
2018-08-04T16:31:28.930Z,71.56
2018-08-04T16:32:28.928Z,69.68
2018-08-04T16:33:28.908Z,70.48
2018-08-04T16:34:28.901Z,68.20
2018-08-04T16:35:28.903Z,69.49
2018-08-04T16:36:28.877Z,71.26
2018-08-04T16:37:28.870Z,68.60
2018-08-04T16:38:28.867Z,70.38
2018-08-04T16:39:28.846Z,70.48
2018-08-04T16:40:28.850Z,71.17
2018-08-04T16:41:28.864Z,69.82
2018-08-04T16:42:28.815Z,68.24
2018-08-04T16:43:28.808Z,71.20
2018-08-04T16:44:28.796Z,69.72
2018-08-04T16:45:28.794Z,70.12
2018-08-04T16:46:28.773Z,69.75
2018-08-04T16:47:28.765Z,69.35
2018-08-04T16:48:28.751Z,70.31
2018-08-04T16:49:28.749Z,71.34
2018-08-04T16:50:28.759Z,70.94
2018-08-04T16:51:28.720Z,69.65
2018-08-04T16:52:28.713Z,69.06